createdAt,value
2022-07-30T00:01:50.454Z,100450.41
2022-07-30T00:04:18.177Z,100440.63
2022-07-30T00:06:45.912Z,100443.31
2022-07-30T00:09:13.908Z,100440.63
2022-07-30T00:11:41.643Z,100439.81
2022-07-30T00:14:09.355Z,100442.50
2022-07-30T00:16:38.546Z,100433.56
2022-07-30T00:19:06.983Z,100432.69
2022-07-30T00:24:01.567Z,100429.31
2022-07-30T00:26:29.946Z,100429.44
2022-07-30T00:28:57.668Z,100424.06
2022-07-30T00:31:25.391Z,100425.75
2022-07-30T00:33:54.435Z,100431.16
2022-07-30T00:36:22.168Z,100419.94
2022-07-30T00:38:49.898Z,100417.84
2022-07-30T00:41:17.638Z,100363.34
2022-07-30T00:43:46.708Z,100427.72
2022-07-30T00:46:14.863Z,100420.94
2022-07-30T00:48:42.757Z,100388.63
2022-07-30T00:51:11.874Z,100423.63
2022-07-30T00:53:39.591Z,100424.63
2022-07-30T00:56:07.569Z,100387.16
2022-07-30T00:58:35.303Z,100414.13
2022-07-30T01:01:03.079Z,100423.16
2022-07-30T01:03:30.785Z,100415.97
2022-07-30T01:05:58.521Z,100417.78
2022-07-30T01:08:27.601Z,100415.09
2022-07-30T01:10:55.377Z,100409.88
2022-07-30T01:13:23.749Z,100410.00
2022-07-30T01:15:51.500Z,100411.72
2022-07-30T01:18:19.217Z,100368.13
2022-07-30T01:21:01.738Z,100418.06
2022-07-30T01:23:33.774Z,100419.94
2022-07-30T01:26:03.857Z,100422.75
2022-07-30T01:28:32.051Z,100422.03
2022-07-30T01:30:59.801Z,100416.66
2022-07-30T01:33:27.523Z,100417.50
2022-07-30T01:35:55.428Z,100414.22
2022-07-30T01:38:25.062Z,100406.31
2022-07-30T01:40:53.329Z,100416.78
2022-07-30T01:43:22.987Z,100340.91
2022-07-30T01:45:50.937Z,100415.09
2022-07-30T01:48:19.740Z,100378.47
2022-07-30T01:50:48.054Z,100416.06
2022-07-30T01:53:16.757Z,100374.34
2022-07-30T01:55:44.507Z,100386.97
2022-07-30T01:58:12.312Z,100336.94
2022-07-30T02:00:41.876Z,100414.38
2022-07-30T02:03:09.665Z,100359.03
2022-07-30T02:05:38.236Z,100419.03
2022-07-30T02:08:09.410Z,100376.03
2022-07-30T02:10:43.564Z,100417.72
2022-07-30T02:13:11.720Z,100420.03
2022-07-30T02:15:43.908Z,100422.69
2022-07-30T02:18:14.524Z,100429.09
2022-07-30T02:20:44.938Z,100360.41
2022-07-30T02:23:16.588Z,100435.41
2022-07-30T02:25:48.345Z,100436.28
2022-07-30T02:28:16.224Z,100439.97
2022-07-30T02:30:47.198Z,100444.47
2022-07-30T02:33:15.074Z,100435.81
2022-07-30T02:35:42.831Z,100442.78
2022-07-30T02:38:10.994Z,100420.47
2022-07-30T02:40:39.623Z,100449.13
2022-07-30T02:43:07.314Z,100449.25
2022-07-30T02:45:35.035Z,100446.56
2022-07-30T02:48:06.595Z,100395.50
2022-07-30T02:50:34.596Z,100444.88
2022-07-30T02:53:02.660Z,100440.38
2022-07-30T02:55:32.277Z,100444.03
2022-07-30T02:58:00.006Z,100448.56
2022-07-30T03:00:27.990Z,100378.03
2022-07-30T03:02:56.903Z,100379.00
2022-07-30T03:05:26.470Z,100451.50
2022-07-30T03:07:54.989Z,100445.38
2022-07-30T03:10:22.691Z,100438.13
2022-07-30T03:12:50.411Z,100452.34
2022-07-30T03:15:18.120Z,100458.59
2022-07-30T03:17:47.742Z,100458.59
2022-07-30T03:20:17.842Z,100400.22
2022-07-30T03:22:48.099Z,100462.66
2022-07-30T03:25:17.837Z,100469.72
2022-07-30T03:27:45.552Z,100468.84
2022-07-30T03:30:13.929Z,100395.66
2022-07-30T03:32:42.922Z,100471.66
2022-07-30T03:35:17.065Z,100471.81
2022-07-30T03:37:46.651Z,100468.28
2022-07-30T03:40:14.544Z,100469.69
2022-07-30T03:42:42.277Z,100478.44
2022-07-30T03:45:10.888Z,100471.66
2022-07-30T03:47:39.809Z,100469.22
2022-07-30T03:50:07.964Z,100481.84
2022-07-30T03:52:35.834Z,100481.13
2022-07-30T03:55:06.227Z,100476.03
2022-07-30T03:57:33.981Z,100489.19
2022-07-30T04:00:02.137Z,100429.59
2022-07-30T04:02:29.877Z,100485.81
2022-07-30T04:04:57.572Z,100481.53
2022-07-30T04:07:25.304Z,100484.94
2022-07-30T04:09:52.997Z,100486.63
2022-07-30T04:12:22.084Z,100489.47
2022-07-30T04:14:49.788Z,100488.63
2022-07-30T04:17:19.910Z,100499.38
2022-07-30T04:19:49.119Z,100489.03
2022-07-30T04:22:17.406Z,100480.03
2022-07-30T04:24:45.293Z,100505.84
2022-07-30T04:27:13.031Z,100462.81
2022-07-30T04:29:42.207Z,100511.34
2022-07-30T04:32:10.400Z,100514.91
2022-07-30T04:34:38.103Z,100517.72
2022-07-30T04:37:05.841Z,100518.72
2022-07-30T04:39:33.564Z,100523.97
2022-07-30T04:42:01.480Z,100531.88
2022-07-30T04:44:29.219Z,100532.97
2022-07-30T04:47:01.488Z,100535.66
2022-07-30T04:49:29.596Z,100537.53
2022-07-30T04:51:57.346Z,100542.03
2022-07-30T04:54:25.481Z,100539.47
2022-07-30T04:56:54.724Z,100539.59
2022-07-30T04:59:24.918Z,100540.47
2022-07-30T05:01:52.793Z,100546.69
2022-07-30T05:04:21.920Z,100550.22
2022-07-30T05:06:49.663Z,100545.72
2022-07-30T05:09:17.391Z,100546.69
2022-07-30T05:11:51.420Z,100501.25
2022-07-30T05:14:19.135Z,100540.59
2022-07-30T05:16:46.906Z,100501.66
2022-07-30T05:19:14.731Z,100541.44
2022-07-30T05:21:43.808Z,100544.00
2022-07-30T05:24:11.512Z,100541.56
2022-07-30T05:26:39.258Z,100545.97
2022-07-30T05:29:08.129Z,100525.53
2022-07-30T05:31:38.048Z,100540.59
2022-07-30T05:34:05.941Z,100543.28
2022-07-30T05:36:33.716Z,100541.56
2022-07-30T05:39:02.792Z,100533.50
2022-07-30T05:41:32.095Z,100517.47
2022-07-30T05:44:01.124Z,100539.75
2022-07-30T05:46:29.041Z,100538.88
2022-07-30T05:48:56.808Z,100538.06
2022-07-30T05:51:24.606Z,100533.75
2022-07-30T05:53:52.356Z,100546.94
2022-07-30T05:56:21.445Z,100528.91
2022-07-30T05:58:49.173Z,100539.88
2022-07-30T06:01:16.982Z,100544.13
2022-07-30T06:03:44.711Z,100545.13
2022-07-30T06:06:12.453Z,100554.88
2022-07-30T06:08:40.202Z,100536.72
2022-07-30T06:11:08.928Z,100547.53
2022-07-30T06:13:38.257Z,100549.38
2022-07-30T06:16:06.496Z,100549.38
2022-07-30T06:18:34.266Z,100496.53
2022-07-30T06:21:02.006Z,100550.38
2022-07-30T06:23:29.729Z,100551.22
2022-07-30T06:25:57.469Z,100552.06
2022-07-30T06:28:37.612Z,100554.75
2022-07-30T06:31:07.874Z,100535.22
2022-07-30T06:33:35.650Z,100544.72
2022-07-30T06:36:03.378Z,100544.00
2022-07-30T06:38:31.147Z,100549.97
2022-07-30T06:41:02.376Z,100545.47
2022-07-30T06:43:30.796Z,100550.84
2022-07-30T06:45:58.529Z,100555.22
2022-07-30T06:48:27.868Z,100549.84
2022-07-30T06:50:55.583Z,100552.53
2022-07-30T06:53:23.303Z,100554.34
2022-07-30T06:55:51.240Z,100550.69
2022-07-30T06:58:25.421Z,100551.66
2022-07-30T07:00:53.530Z,100547.28
2022-07-30T07:03:21.445Z,100543.72
2022-07-30T07:05:50.502Z,100486.31
2022-07-30T07:08:18.572Z,100546.41
2022-07-30T07:10:46.302Z,100541.03
2022-07-30T07:13:14.023Z,100482.63
2022-07-30T07:15:41.742Z,100540.09
2022-07-30T07:18:09.534Z,100545.47
2022-07-30T07:20:37.248Z,100540.91
2022-07-30T07:23:09.352Z,100543.59
2022-07-30T07:25:39.927Z,100535.66
2022-07-30T07:28:12.127Z,100545.19
2022-07-30T07:30:41.276Z,100541.78
2022-07-30T07:33:09.201Z,100548.84
2022-07-30T07:35:48.769Z,100541.38
2022-07-30T07:38:18.994Z,100486.84
2022-07-30T07:40:47.157Z,100542.09
2022-07-30T07:43:15.060Z,100548.31
2022-07-30T07:45:43.005Z,100548.19
2022-07-30T07:48:10.796Z,100542.09
2022-07-30T07:50:38.485Z,100550.63
2022-07-30T07:53:06.551Z,100554.16
2022-07-30T07:55:35.802Z,100549.75
2022-07-30T07:58:03.625Z,100527.34
2022-07-30T08:00:31.937Z,100485.38
2022-07-30T08:02:59.666Z,100543.28
2022-07-30T08:06:00.794Z,100534.34
2022-07-30T08:08:15.315Z,100528.84
2022-07-30T08:10:44.368Z,100531.41
2022-07-30T08:13:48.564Z,100539.22
2022-07-30T08:15:59.870Z,100534.72
2022-07-30T08:18:27.595Z,100531.91
2022-07-30T08:20:55.504Z,100533.59
2022-07-30T08:23:24.436Z,100524.94
2022-07-30T08:25:53.488Z,100528.69
2022-07-30T08:28:36.576Z,100530.38
2022-07-30T08:31:04.668Z,100484.34
2022-07-30T08:33:32.412Z,100526.16
2022-07-30T08:36:04.037Z,100524.19
2022-07-30T08:38:32.232Z,100530.03
2022-07-30T08:41:01.336Z,100528.78
2022-07-30T08:43:29.084Z,100529.38
2022-07-30T08:45:56.965Z,100533.34
2022-07-30T08:48:24.698Z,100479.03
2022-07-30T08:50:52.404Z,100520.22
2022-07-30T08:53:20.159Z,100525.88
2022-07-30T08:55:47.868Z,100532.84
2022-07-30T08:58:23.600Z,100527.22
2022-07-30T09:00:51.354Z,100531.44
2022-07-30T09:03:19.122Z,100535.69
2022-07-30T09:05:46.817Z,100537.16
2022-07-30T09:08:14.556Z,100530.19
2022-07-30T09:10:52.788Z,100533.81
2022-07-30T09:13:26.424Z,100534.38
2022-07-30T09:15:54.283Z,100458.03
2022-07-30T09:18:29.547Z,100525.03
2022-07-30T09:20:57.437Z,100530.28
2022-07-30T09:23:25.178Z,100530.16
2022-07-30T09:25:53.030Z,100526.47
2022-07-30T09:28:30.725Z,100537.97
2022-07-30T09:30:58.592Z,100525.59
2022-07-30T09:33:34.055Z,100530.84
2022-07-30T09:36:02.259Z,100537.22
2022-07-30T09:38:29.983Z,100534.53
2022-07-30T09:41:02.049Z,100534.53
2022-07-30T09:43:44.602Z,100530.16
2022-07-30T09:46:12.460Z,100530.28
2022-07-30T09:48:40.251Z,100532.00
2022-07-30T09:51:15.887Z,100539.19
2022-07-30T09:53:57.638Z,100546.31
2022-07-30T09:56:26.207Z,100542.75
2022-07-30T09:58:55.391Z,100549.00
2022-07-30T10:01:24.511Z,100540.94
2022-07-30T10:04:12.217Z,100552.53
2022-07-30T10:06:42.024Z,100499.44
2022-07-30T10:09:14.222Z,100546.16
2022-07-30T10:11:44.708Z,100548.88
2022-07-30T10:14:13.792Z,100547.88
2022-07-30T10:16:41.564Z,100552.25
2022-07-30T10:19:18.015Z,100542.34
2022-07-30T10:21:48.047Z,100551.28
2022-07-30T10:24:17.674Z,100552.84
2022-07-30T10:26:55.726Z,100557.06
2022-07-30T10:29:33.564Z,100553.16
2022-07-30T10:32:01.936Z,100552.88
2022-07-30T10:34:34.234Z,100552.59
2022-07-30T10:37:04.493Z,100549.75
2022-07-30T10:39:35.548Z,100553.28
2022-07-30T10:42:10.924Z,100547.63
2022-07-30T10:44:52.786Z,100540.66
2022-07-30T10:47:20.512Z,100554.88
2022-07-30T10:50:11.894Z,100485.16
2022-07-30T10:52:47.110Z,100559.38
2022-07-30T10:55:15.759Z,100510.00
2022-07-30T10:58:00.383Z,100557.56
2022-07-30T11:00:29.705Z,100556.84
2022-07-30T11:03:20.220Z,100540.09
2022-07-30T11:05:51.344Z,100499.66
2022-07-30T11:08:42.793Z,100552.88
2022-07-30T11:12:01.978Z,100539.25
2022-07-30T11:14:56.343Z,100550.75
2022-07-30T11:17:25.435Z,100548.06
2022-07-30T11:20:11.918Z,100538.84
2022-07-30T11:22:40.624Z,100479.16
2022-07-30T11:25:13.016Z,100525.38
2022-07-30T11:27:42.111Z,100537.75
2022-07-30T11:30:33.761Z,100542.13
2022-07-30T11:33:32.154Z,100539.44
2022-07-30T11:36:11.925Z,100535.88
2022-07-30T11:38:57.981Z,100483.72
2022-07-30T11:41:28.957Z,100531.06
2022-07-30T11:44:28.575Z,100530.50
2022-07-30T11:46:56.375Z,100527.09
2022-07-30T11:49:25.504Z,100523.44
2022-07-30T11:51:53.228Z,100532.34
2022-07-30T11:54:20.986Z,100536.03
2022-07-30T11:56:52.419Z,100539.59
2022-07-30T11:59:20.148Z,100540.56
2022-07-30T12:01:51.230Z,100539.72
2022-07-30T12:04:19.041Z,100546.94
2022-07-30T12:06:48.608Z,100537.19
2022-07-30T12:09:22.706Z,100534.03
2022-07-30T12:11:50.466Z,100542.72
2022-07-30T12:14:18.227Z,100539.00
2022-07-30T12:16:50.761Z,100537.31
2022-07-30T12:19:18.472Z,100541.84
2022-07-30T12:21:49.560Z,100537.47
2022-07-30T12:24:25.510Z,100545.41
2022-07-30T12:26:53.208Z,100496.03
2022-07-30T12:29:20.964Z,100548.91
2022-07-30T12:31:48.646Z,100522.84
2022-07-30T12:34:23.136Z,100554.03
2022-07-30T12:36:51.020Z,100549.63
2022-07-30T12:39:24.862Z,100535.72
2022-07-30T12:41:53.289Z,100551.63
2022-07-30T12:44:40.686Z,100556.72
2022-07-30T12:47:20.330Z,100548.63
2022-07-30T12:49:49.679Z,100555.03
2022-07-30T12:52:28.155Z,100561.41
2022-07-30T12:55:05.903Z,100546.09
2022-07-30T12:57:52.802Z,100552.34
2022-07-30T13:00:20.609Z,100540.72
2022-07-30T13:02:48.549Z,100547.22
2022-07-30T13:05:16.307Z,100541.84
2022-07-30T13:07:57.228Z,100546.22
2022-07-30T13:10:30.895Z,100541.84
2022-07-30T13:12:59.340Z,100541.84
2022-07-30T13:15:27.391Z,100552.63
2022-07-30T13:17:55.156Z,100544.66
2022-07-30T13:20:22.959Z,100543.53
2022-07-30T13:22:50.781Z,100547.94
2022-07-30T13:25:18.514Z,100541.69
2022-07-30T13:27:48.385Z,100537.47
2022-07-30T13:30:16.145Z,100542.56
2022-07-30T13:32:43.854Z,100539.00
2022-07-30T13:35:11.597Z,100544.41
2022-07-30T13:37:39.310Z,100549.78
2022-07-30T13:40:08.030Z,100553.34
2022-07-30T13:42:35.855Z,100551.47
2022-07-30T13:45:05.455Z,100553.34
2022-07-30T13:47:33.166Z,100555.31
2022-07-30T13:50:00.958Z,100557.00
2022-07-30T13:52:28.795Z,100544.53
2022-07-30T13:54:56.510Z,100552.63
2022-07-30T13:57:24.198Z,100550.91
2022-07-30T13:59:52.639Z,100544.66
2022-07-30T14:02:21.667Z,100546.50
2022-07-30T14:04:49.395Z,100543.81
2022-07-30T14:07:17.472Z,100542.97
2022-07-30T14:09:46.098Z,100543.81
2022-07-30T14:12:15.580Z,100541.13
2022-07-30T14:14:43.295Z,100536.16
2022-07-30T14:17:11.356Z,100540.28
2022-07-30T14:19:40.421Z,100539.44
2022-07-30T14:22:08.129Z,100533.19
2022-07-30T14:24:35.899Z,100529.34
2022-07-30T14:27:04.018Z,100532.34
2022-07-30T14:29:32.090Z,100532.34
2022-07-30T14:31:59.784Z,100534.19
2022-07-30T14:34:28.202Z,100533.31
2022-07-30T14:36:57.408Z,100524.28
2022-07-30T14:39:25.987Z,100540.44
2022-07-30T14:41:55.735Z,100535.03
2022-07-30T14:44:23.588Z,100534.47
2022-07-30T14:46:52.307Z,100524.56
2022-07-30T14:49:20.636Z,100536.16
2022-07-30T14:51:48.393Z,100535.19
2022-07-30T14:54:17.462Z,100533.31
2022-07-30T14:56:45.158Z,100533.31
2022-07-30T14:59:12.889Z,100537.88
2022-07-30T15:01:41.888Z,100540.56
2022-07-30T15:04:11.518Z,100539.72
2022-07-30T15:06:40.788Z,100539.72
2022-07-30T15:09:08.646Z,100536.16
2022-07-30T15:12:04.233Z,100540.72
2022-07-30T15:14:26.978Z,100537.28
2022-07-30T15:16:59.385Z,100538.84
2022-07-30T15:19:31.120Z,100536.28
2022-07-30T15:21:59.092Z,100533.47
2022-07-30T15:24:27.053Z,100530.06
2022-07-30T15:26:56.678Z,100534.75
2022-07-30T15:29:27.240Z,100534.59
2022-07-30T15:31:55.259Z,100538.16
2022-07-30T15:34:23.045Z,100536.44
2022-07-30T15:36:50.736Z,100539.97
2022-07-30T15:39:18.452Z,100539.97
2022-07-30T15:41:46.151Z,100532.19
2022-07-30T15:44:15.211Z,100538.16
2022-07-30T15:46:42.908Z,100536.44
2022-07-30T15:49:11.019Z,100535.59
2022-07-30T15:51:43.790Z,100528.22
2022-07-30T15:54:11.507Z,100528.34
2022-07-30T15:56:39.214Z,100522.81
2022-07-30T15:59:07.261Z,100525.66
2022-07-30T16:01:36.344Z,100524.69
2022-07-30T16:04:04.403Z,100526.53
2022-07-30T16:06:32.486Z,100528.06
2022-07-30T16:09:00.219Z,100529.66
2022-07-30T16:11:27.929Z,100521.16
2022-07-30T16:14:00.246Z,100518.03
2022-07-30T16:16:27.934Z,100515.06
2022-07-30T16:18:56.972Z,100517.19
2022-07-30T16:21:24.692Z,100518.47
2022-07-30T16:23:53.662Z,100520.63
2022-07-30T16:26:21.656Z,100522.16
2022-07-30T16:28:49.372Z,100517.50
2022-07-30T16:31:17.083Z,100522.88
2022-07-30T16:33:44.960Z,100515.53
2022-07-30T16:36:14.298Z,100528.13
2022-07-30T16:38:42.083Z,100523.03
2022-07-30T16:41:13.385Z,100522.31
2022-07-30T16:43:41.631Z,100525.88
2022-07-30T16:46:10.941Z,100531.25
2022-07-30T16:48:38.703Z,100535.09
2022-07-30T16:51:06.971Z,100531.53
2022-07-30T16:53:37.629Z,100533.66
2022-07-30T16:56:05.990Z,100528.38
2022-07-30T16:58:33.697Z,100534.63
2022-07-30T17:01:01.581Z,100534.78
2022-07-30T17:03:29.330Z,100528.53
2022-07-30T17:05:57.043Z,100534.91
2022-07-30T17:08:25.453Z,100531.34
2022-07-30T17:10:54.686Z,100533.06
2022-07-30T17:13:24.953Z,100535.78
2022-07-30T17:15:52.669Z,100533.91
2022-07-30T17:18:20.361Z,100530.13
2022-07-30T17:20:48.084Z,100530.81
2022-07-30T17:23:15.780Z,100534.53
2022-07-30T17:25:43.500Z,100530.97
2022-07-30T17:28:12.522Z,100525.69
2022-07-30T17:30:40.250Z,100530.13
2022-07-30T17:33:07.955Z,100530.13
2022-07-30T17:35:35.685Z,100533.75
2022-07-30T17:38:03.386Z,100534.63
2022-07-30T17:40:31.962Z,100538.31
2022-07-30T17:43:03.727Z,100541.84
2022-07-30T17:45:33.410Z,100541.00
2022-07-30T17:48:01.635Z,100529.38
2022-07-30T17:50:29.684Z,100536.59
2022-07-30T17:52:57.433Z,100538.47
2022-07-30T17:55:25.310Z,100547.50
2022-07-30T17:57:53.012Z,100538.59
2022-07-30T18:00:20.754Z,100544.97
2022-07-30T18:02:49.792Z,100547.66
2022-07-30T18:05:17.521Z,100532.50
2022-07-30T18:07:45.241Z,100432.75
2022-07-30T18:10:13.174Z,100476.91
2022-07-30T18:12:48.413Z,100549.53
2022-07-30T18:15:16.476Z,100551.50
2022-07-30T18:17:44.174Z,100491.22
2022-07-30T18:20:13.483Z,100548.81
2022-07-30T18:22:41.217Z,100549.81
2022-07-30T18:25:18.015Z,100550.78
2022-07-30T18:27:47.071Z,100550.91
2022-07-30T18:30:14.944Z,100550.09
2022-07-30T18:32:42.668Z,100559.84
2022-07-30T18:35:14.095Z,100553.75
2022-07-30T18:37:44.313Z,100564.38
2022-07-30T18:40:13.388Z,100568.22
2022-07-30T18:42:41.162Z,100568.34
2022-07-30T18:45:10.310Z,100572.06
2022-07-30T18:47:38.012Z,100573.03
2022-07-30T18:50:06.587Z,100574.88
2022-07-30T18:52:34.552Z,100571.47
2022-07-30T18:55:03.650Z,100574.31
2022-07-30T18:57:31.354Z,100569.91
2022-07-30T18:59:59.079Z,100581.50
2022-07-30T19:02:26.796Z,100577.28
2022-07-30T19:04:54.662Z,100574.72
2022-07-30T19:07:23.379Z,100584.63
2022-07-30T19:09:55.347Z,100566.34
2022-07-30T19:12:24.418Z,100574.53
2022-07-30T19:14:52.161Z,100577.97
2022-07-30T19:17:20.043Z,100581.50
2022-07-30T19:19:47.825Z,100577.09
2022-07-30T19:22:15.781Z,100582.63
2022-07-30T19:24:43.501Z,100583.63
2022-07-30T19:27:14.315Z,100582.75
2022-07-30T19:29:44.886Z,100590.00
2022-07-30T19:32:12.637Z,100589.28
2022-07-30T19:34:41.006Z,100600.19
2022-07-30T19:37:08.715Z,100600.19
2022-07-30T19:39:36.435Z,100599.34
2022-07-30T19:42:04.504Z,100604.72
2022-07-30T19:44:32.422Z,100613.78
2022-07-30T19:47:01.484Z,100617.34
2022-07-30T19:49:29.602Z,100617.47
2022-07-30T19:52:09.954Z,100614.94
2022-07-30T19:54:45.302Z,100621.28
2022-07-30T19:57:13.146Z,100621.41
2022-07-30T19:59:49.434Z,100619.72
2022-07-30T20:02:35.395Z,100618.84
2022-07-30T20:05:03.919Z,100626.94
2022-07-30T20:07:33.970Z,100624.25
2022-07-30T20:10:03.389Z,100627.94
2022-07-30T20:12:31.102Z,100630.63
2022-07-30T20:14:58.865Z,100634.44
2022-07-30T20:17:27.451Z,100630.03
2022-07-30T20:19:58.004Z,100636.41
2022-07-30T20:22:28.996Z,100642.78
2022-07-30T20:24:56.991Z,100642.94
2022-07-30T20:27:35.995Z,100608.47
2022-07-30T20:30:13.180Z,100646.59
2022-07-30T20:32:44.772Z,100587.91
2022-07-30T20:35:16.034Z,100645.03
2022-07-30T20:37:55.626Z,100651.41
2022-07-30T20:40:24.605Z,100631.75
2022-07-30T20:42:54.740Z,100648.00
2022-07-30T20:48:16.914Z,100646.44
2022-07-30T20:50:49.315Z,100648.25
2022-07-30T20:53:17.176Z,100609.28
2022-07-30T20:55:44.916Z,100650.38
2022-07-30T20:58:17.483Z,100648.53
2022-07-30T21:00:49.992Z,100655.75
2022-07-30T21:03:18.943Z,100655.84
2022-07-30T21:05:51.205Z,100532.41
2022-07-30T21:08:21.308Z,100657.97
2022-07-30T21:10:53.203Z,100656.09
2022-07-30T21:13:22.974Z,100660.66
2022-07-30T21:16:02.811Z,100653.69
2022-07-30T21:18:31.492Z,100653.81
2022-07-30T21:21:04.854Z,100661.75
2022-07-30T21:23:33.472Z,100649.31
2022-07-30T21:26:05.800Z,100654.69
2022-07-30T21:28:35.840Z,100664.72
2022-07-30T21:31:04.090Z,100648.81
2022-07-30T21:33:35.318Z,100653.25
2022-07-30T21:36:04.579Z,100647.88
2022-07-30T21:38:34.400Z,100655.94
2022-07-30T21:41:02.187Z,100657.78
2022-07-30T21:43:30.531Z,100665.97
2022-07-30T21:46:03.795Z,100653.78
2022-07-30T21:48:34.317Z,100665.97
2022-07-30T21:51:02.048Z,100661.59
2022-07-30T21:53:44.768Z,100669.66
2022-07-30T21:56:14.159Z,100667.94
2022-07-30T21:58:42.279Z,100671.63
2022-07-30T22:01:17.811Z,100667.09
2022-07-30T22:04:03.923Z,100666.13
2022-07-30T22:06:34.405Z,100671.63
2022-07-30T22:09:09.925Z,100674.44
2022-07-30T22:11:47.553Z,100684.34
2022-07-30T22:14:15.789Z,100681.78
2022-07-30T22:16:45.927Z,100676.41
2022-07-30T22:19:14.696Z,100677.28
2022-07-30T22:21:42.833Z,100676.41
2022-07-30T22:24:29.638Z,100682.66
2022-07-30T22:26:59.840Z,100680.22
2022-07-30T22:29:27.895Z,100679.38
2022-07-30T22:32:02.992Z,100682.19
2022-07-30T22:34:31.210Z,100683.91
2022-07-30T22:36:58.929Z,100680.34
2022-07-30T22:39:50.329Z,100684.88
2022-07-30T22:42:16.097Z,100682.44
2022-07-30T22:44:45.675Z,100681.75
2022-07-30T22:47:21.259Z,100683.44
2022-07-30T22:49:55.368Z,100681.75
2022-07-30T22:52:25.461Z,100680.03
2022-07-30T22:55:04.652Z,100665.59
2022-07-30T22:57:38.155Z,100672.94
2022-07-30T23:00:10.861Z,100667.31
2022-07-30T23:02:39.652Z,100661.06
2022-07-30T23:05:08.051Z,100659.50
2022-07-30T23:07:39.924Z,100615.88
2022-07-30T23:10:16.986Z,100661.47
2022-07-30T23:12:18.424Z,100652.50
2022-07-30T23:12:47.381Z,100570.94
2022-07-30T23:15:15.331Z,100650.00
2022-07-30T23:17:43.546Z,100659.03
2022-07-30T23:20:13.178Z,100643.03
2022-07-30T23:22:40.890Z,100643.88
2022-07-30T23:25:11.292Z,100641.19
2022-07-30T23:27:39.289Z,100638.63
2022-07-30T23:30:08.439Z,100643.16
2022-07-30T23:32:36.713Z,100636.94
2022-07-30T23:35:04.940Z,100635.22
2022-07-30T23:37:47.585Z,100639.75
2022-07-30T23:40:18.758Z,100641.59
2022-07-30T23:42:46.873Z,100641.59
2022-07-30T23:45:14.616Z,100641.72
2022-07-30T23:47:52.149Z,100636.34
2022-07-30T23:50:30.212Z,100647.09
2022-07-30T23:52:57.996Z,100638.16
2022-07-30T23:55:28.081Z,100635.63
2022-07-30T23:57:55.913Z,100643.94
